Cottonwood Heights, Utah
Current Conditions -  °F | °C
As of 5:53 PM on Thursday 27 Nov 2014 (Local Time) from KSLC Reporting Station
Broken Clouds Broken Clouds  
Wind Chill: 51°   Ceiling: 21000
Heat Index: 51°   Visibility: 10mi
Dew Point: 24°   Wind: 9mph
Humidity: 35%   Direction: 120°ESE
Pressure: 30.17"   Gusts: NA
Location:  40.5945°N, 111.827°W
Report Text: KSLC 280053Z 12008KT 10SM FEW085 SCT140 BKN210 11/M04 A3017 RMK AO2 SLP201 T01061044
Loading
Personal Weather Stations






























Interactive Weather Map New forecast layout! Learn more

10-Day Weather Forecast

Advertisements
Track Severe Weather on mobile